Terminal Aerodrome Forecast
Issued by NWS Pittsburgh, PA

Current Version | Previous Version | Graphics & Text | Print | Product List | Glossary On
Versions: 1 2 3 4 5 6 7 8 9 10 11 12 13 14 15 16 17 18 19 20 21 22 23 24 25 26 27 28 29
000
FTUS41 KPBZ 280100 AAA
TAFPIT
TAF AMD
KPIT 280120Z 2801/2906 32010KT P6SM -SHSN BKN018 OVC080
     FM280400 31005KT P6SM SCT025
     FM280800 27003KT P6SM SKC
     FM290300 VRB03KT P6SM SCT100=

USA.gov is the U.S. government's official web portal to all federal, state and local government web resources and services.